sensor_id;sensor_type;location;lat;lon;timestamp;P1;durP1;ratioP1;P2;durP2;ratioP2
13222;SDS011;6676;45.192;5.722;2023-06-24T00:01:52;2.02;;;1.82;;
13222;SDS011;6676;45.192;5.722;2023-06-24T00:04:44;2.62;;;1.90;;
13222;SDS011;6676;45.192;5.722;2023-06-24T00:10:15;3.80;;;2.33;;
13222;SDS011;6676;45.192;5.722;2023-06-24T00:13:07;2.58;;;2.10;;
13222;SDS011;6676;45.192;5.722;2023-06-24T00:15:58;1.87;;;1.75;;
13222;SDS011;6676;45.192;5.722;2023-06-24T00:18:49;3.85;;;2.10;;
13222;SDS011;6676;45.192;5.722;2023-06-24T00:21:41;2.92;;;1.98;;
13222;SDS011;6676;45.192;5.722;2023-06-24T00:24:33;3.33;;;1.92;;
13222;SDS011;6676;45.192;5.722;2023-06-24T00:27:24;3.00;;;2.25;;
13222;SDS011;6676;45.192;5.722;2023-06-24T00:35:24;2.35;;;1.85;;
13222;SDS011;6676;45.192;5.722;2023-06-24T00:38:16;4.42;;;1.90;;
13222;SDS011;6676;45.192;5.722;2023-06-24T00:41:07;2.80;;;2.15;;
13222;SDS011;6676;45.192;5.722;2023-06-24T00:46:39;2.15;;;1.90;;
13222;SDS011;6676;45.192;5.722;2023-06-24T00:49:31;2.60;;;2.00;;
13222;SDS011;6676;45.192;5.722;2023-06-24T00:52:22;3.65;;;2.10;;
13222;SDS011;6676;45.192;5.722;2023-06-24T00:55:15;3.20;;;2.20;;
13222;SDS011;6676;45.192;5.722;2023-06-24T01:00:47;2.10;;;1.77;;
13222;SDS011;6676;45.192;5.722;2023-06-24T01:06:20;3.98;;;1.95;;
13222;SDS011;6676;45.192;5.722;2023-06-24T01:09:12;2.40;;;2.20;;
13222;SDS011;6676;45.192;5.722;2023-06-24T01:12:05;3.55;;;2.37;;
13222;SDS011;6676;45.192;5.722;2023-06-24T01:14:57;3.25;;;2.12;;
13222;SDS011;6676;45.192;5.722;2023-06-24T01:17:50;3.35;;;2.83;;
13222;SDS011;6676;45.192;5.722;2023-06-24T01:20:40;3.22;;;2.22;;
13222;SDS011;6676;45.192;5.722;2023-06-24T01:26:45;3.08;;;2.08;;
13222;SDS011;6676;45.192;5.722;2023-06-24T01:36:10;4.87;;;1.98;;
13222;SDS011;6676;45.192;5.722;2023-06-24T01:39:04;3.08;;;2.17;;
13222;SDS011;6676;45.192;5.722;2023-06-24T01:41:58;3.02;;;2.37;;
13222;SDS011;6676;45.192;5.722;2023-06-24T01:47:36;2.65;;;2.00;;
13222;SDS011;6676;45.192;5.722;2023-06-24T01:50:30;4.10;;;2.22;;
13222;SDS011;6676;45.192;5.722;2023-06-24T01:53:25;2.45;;;2.25;;
13222;SDS011;6676;45.192;5.722;2023-06-24T01:56:18;3.80;;;2.00;;
13222;SDS011;6676;45.192;5.722;2023-06-24T01:59:13;3.40;;;2.12;;
13222;SDS011;6676;45.192;5.722;2023-06-24T02:04:53;2.25;;;2.02;;
13222;SDS011;6676;45.192;5.722;2023-06-24T02:07:46;2.90;;;1.87;;
13222;SDS011;6676;45.192;5.722;2023-06-24T02:10:41;3.65;;;2.08;;
13222;SDS011;6676;45.192;5.722;2023-06-24T02:16:23;8.70;;;2.37;;
13222;SDS011;6676;45.192;5.722;2023-06-24T02:19:16;3.15;;;2.85;;
13222;SDS011;6676;45.192;5.722;2023-06-24T02:22:08;3.10;;;2.10;;
13222;SDS011;6676;45.192;5.722;2023-06-24T02:30:22;2.20;;;2.00;;
13222;SDS011;6676;45.192;5.722;2023-06-24T02:33:15;3.27;;;2.08;;
13222;SDS011;6676;45.192;5.722;2023-06-24T02:35:55;2.58;;;2.15;;
13222;SDS011;6676;45.192;5.722;2023-06-24T02:38:46;2.52;;;2.10;;
13222;SDS011;6676;45.192;5.722;2023-06-24T02:41:38;3.72;;;2.30;;
13222;SDS011;6676;45.192;5.722;2023-06-24T02:44:29;2.85;;;2.42;;
13222;SDS011;6676;45.192;5.722;2023-06-24T02:47:22;4.20;;;2.80;;
13222;SDS011;6676;45.192;5.722;2023-06-24T02:50:16;4.47;;;2.33;;
13222;SDS011;6676;45.192;5.722;2023-06-24T02:55:47;3.65;;;2.72;;
13222;SDS011;6676;45.192;5.722;2023-06-24T02:58:39;3.42;;;2.22;;
13222;SDS011;6676;45.192;5.722;2023-06-24T03:01:33;4.40;;;2.35;;
13222;SDS011;6676;45.192;5.722;2023-06-24T03:07:07;4.08;;;2.30;;
13222;SDS011;6676;45.192;5.722;2023-06-24T03:15:24;2.47;;;2.00;;
13222;SDS011;6676;45.192;5.722;2023-06-24T03:20:57;2.90;;;2.12;;
13222;SDS011;6676;45.192;5.722;2023-06-24T03:26:32;2.45;;;2.08;;
13222;SDS011;6676;45.192;5.722;2023-06-24T03:29:29;3.17;;;2.33;;
13222;SDS011;6676;45.192;5.722;2023-06-24T03:32:08;4.22;;;2.20;;
13222;SDS011;6676;45.192;5.722;2023-06-24T03:37:46;3.67;;;2.45;;
13222;SDS011;6676;45.192;5.722;2023-06-24T03:40:38;2.33;;;2.00;;
13222;SDS011;6676;45.192;5.722;2023-06-24T03:46:21;3.72;;;2.20;;
13222;SDS011;6676;45.192;5.722;2023-06-24T03:49:12;3.10;;;2.72;;
13222;SDS011;6676;45.192;5.722;2023-06-24T03:52:05;5.00;;;2.65;;
13222;SDS011;6676;45.192;5.722;2023-06-24T03:54:58;3.40;;;2.50;;
13222;SDS011;6676;45.192;5.722;2023-06-24T04:00:32;3.20;;;2.40;;
13222;SDS011;6676;45.192;5.722;2023-06-24T04:03:24;3.58;;;2.70;;
13222;SDS011;6676;45.192;5.722;2023-06-24T04:06:17;3.95;;;2.90;;
13222;SDS011;6676;45.192;5.722;2023-06-24T04:11:48;7.55;;;3.77;;
13222;SDS011;6676;45.192;5.722;2023-06-24T04:14:39;4.22;;;3.45;;
13222;SDS011;6676;45.192;5.722;2023-06-24T04:17:30;3.87;;;3.00;;
13222;SDS011;6676;45.192;5.722;2023-06-24T04:20:22;4.58;;;2.80;;
13222;SDS011;6676;45.192;5.722;2023-06-24T04:23:13;3.15;;;2.70;;
13222;SDS011;6676;45.192;5.722;2023-06-24T04:26:05;3.22;;;2.70;;
13222;SDS011;6676;45.192;5.722;2023-06-24T04:28:56;4.75;;;2.67;;
13222;SDS011;6676;45.192;5.722;2023-06-24T04:31:48;4.00;;;2.83;;
13222;SDS011;6676;45.192;5.722;2023-06-24T04:34:39;3.25;;;2.83;;
13222;SDS011;6676;45.192;5.722;2023-06-24T04:37:30;3.08;;;2.72;;
13222;SDS011;6676;45.192;5.722;2023-06-24T04:40:22;3.30;;;2.35;;
13222;SDS011;6676;45.192;5.722;2023-06-24T04:43:14;3.02;;;2.70;;
13222;SDS011;6676;45.192;5.722;2023-06-24T04:45:54;2.92;;;2.62;;
13222;SDS011;6676;45.192;5.722;2023-06-24T04:51:26;5.83;;;2.98;;
13222;SDS011;6676;45.192;5.722;2023-06-24T04:54:17;3.47;;;2.42;;
13222;SDS011;6676;45.192;5.722;2023-06-24T04:56:57;4.20;;;2.77;;
13222;SDS011;6676;45.192;5.722;2023-06-24T05:02:27;3.27;;;2.67;;
13222;SDS011;6676;45.192;5.722;2023-06-24T05:05:19;3.17;;;2.77;;
13222;SDS011;6676;45.192;5.722;2023-06-24T05:08:12;4.72;;;2.67;;
13222;SDS011;6676;45.192;5.722;2023-06-24T05:11:05;3.22;;;2.67;;
13222;SDS011;6676;45.192;5.722;2023-06-24T05:13:56;4.42;;;2.87;;
13222;SDS011;6676;45.192;5.722;2023-06-24T05:16:36;3.72;;;2.80;;
13222;SDS011;6676;45.192;5.722;2023-06-24T05:19:27;4.55;;;2.60;;
13222;SDS011;6676;45.192;5.722;2023-06-24T05:24:58;5.28;;;3.10;;
13222;SDS011;6676;45.192;5.722;2023-06-24T05:30:28;3.77;;;2.50;;
13222;SDS011;6676;45.192;5.722;2023-06-24T05:33:19;3.35;;;3.05;;
13222;SDS011;6676;45.192;5.722;2023-06-24T05:36:11;3.62;;;2.90;;
13222;SDS011;6676;45.192;5.722;2023-06-24T05:39:03;3.75;;;3.02;;
13222;SDS011;6676;45.192;5.722;2023-06-24T05:41:56;3.40;;;2.90;;
13222;SDS011;6676;45.192;5.722;2023-06-24T05:44:35;3.92;;;2.98;;
13222;SDS011;6676;45.192;5.722;2023-06-24T05:47:27;4.12;;;3.15;;
13222;SDS011;6676;45.192;5.722;2023-06-24T05:50:20;3.25;;;2.77;;
13222;SDS011;6676;45.192;5.722;2023-06-24T05:53:17;5.12;;;3.00;;
13222;SDS011;6676;45.192;5.722;2023-06-24T05:56:09;4.00;;;2.98;;
13222;SDS011;6676;45.192;5.722;2023-06-24T05:59:00;7.20;;;3.20;;
13222;SDS011;6676;45.192;5.722;2023-06-24T06:01:51;3.08;;;2.77;;
13222;SDS011;6676;45.192;5.722;2023-06-24T06:04:43;6.72;;;3.50;;
13222;SDS011;6676;45.192;5.722;2023-06-24T06:07:35;4.83;;;3.30;;
13222;SDS011;6676;45.192;5.722;2023-06-24T06:10:28;4.47;;;3.45;;
13222;SDS011;6676;45.192;5.722;2023-06-24T06:13:19;3.92;;;3.08;;
13222;SDS011;6676;45.192;5.722;2023-06-24T06:16:11;3.77;;;3.00;;
13222;SDS011;6676;45.192;5.722;2023-06-24T06:21:41;5.25;;;3.30;;
13222;SDS011;6676;45.192;5.722;2023-06-24T06:24:32;4.62;;;3.10;;
13222;SDS011;6676;45.192;5.722;2023-06-24T06:27:23;3.55;;;3.10;;
13222;SDS011;6676;45.192;5.722;2023-06-24T06:30:14;3.80;;;3.02;;
13222;SDS011;6676;45.192;5.722;2023-06-24T06:33:06;3.95;;;2.92;;
13222;SDS011;6676;45.192;5.722;2023-06-24T06:35:57;4.47;;;3.40;;
13222;SDS011;6676;45.192;5.722;2023-06-24T06:38:49;3.10;;;2.80;;
13222;SDS011;6676;45.192;5.722;2023-06-24T06:41:42;4.10;;;3.08;;
13222;SDS011;6676;45.192;5.722;2023-06-24T06:47:38;3.67;;;2.98;;
13222;SDS011;6676;45.192;5.722;2023-06-24T06:50:29;4.00;;;3.08;;
13222;SDS011;6676;45.192;5.722;2023-06-24T06:53:27;3.77;;;2.70;;
13222;SDS011;6676;45.192;5.722;2023-06-24T06:56:21;3.52;;;3.10;;
13222;SDS011;6676;45.192;5.722;2023-06-24T06:59:17;3.33;;;2.75;;
13222;SDS011;6676;45.192;5.722;2023-06-24T07:02:26;3.40;;;2.83;;
13222;SDS011;6676;45.192;5.722;2023-06-24T07:05:18;4.12;;;3.10;;
13222;SDS011;6676;45.192;5.722;2023-06-24T07:08:09;4.50;;;3.00;;
13222;SDS011;6676;45.192;5.722;2023-06-24T07:11:00;2.70;;;2.50;;
13222;SDS011;6676;45.192;5.722;2023-06-24T07:16:32;4.72;;;2.80;;
13222;SDS011;6676;45.192;5.722;2023-06-24T07:19:23;4.12;;;2.95;;
13222;SDS011;6676;45.192;5.722;2023-06-24T07:22:14;5.67;;;3.10;;
13222;SDS011;6676;45.192;5.722;2023-06-24T07:24:54;3.75;;;3.10;;
13222;SDS011;6676;45.192;5.722;2023-06-24T07:27:45;3.45;;;2.90;;
13222;SDS011;6676;45.192;5.722;2023-06-24T07:30:36;3.35;;;2.87;;
13222;SDS011;6676;45.192;5.722;2023-06-24T07:33:29;3.08;;;2.60;;
13222;SDS011;6676;45.192;5.722;2023-06-24T07:36:20;3.02;;;2.72;;
13222;SDS011;6676;45.192;5.722;2023-06-24T07:39:18;4.35;;;2.90;;
13222;SDS011;6676;45.192;5.722;2023-06-24T07:42:11;4.25;;;3.00;;
13222;SDS011;6676;45.192;5.722;2023-06-24T07:45:22;3.25;;;2.90;;
13222;SDS011;6676;45.192;5.722;2023-06-24T07:50:53;5.58;;;2.80;;
13222;SDS011;6676;45.192;5.722;2023-06-24T07:53:44;3.92;;;3.30;;
13222;SDS011;6676;45.192;5.722;2023-06-24T07:56:36;3.12;;;2.80;;
13222;SDS011;6676;45.192;5.722;2023-06-24T07:59:15;4.20;;;2.77;;
13222;SDS011;6676;45.192;5.722;2023-06-24T08:02:06;4.25;;;2.75;;
13222;SDS011;6676;45.192;5.722;2023-06-24T08:07:37;3.47;;;2.87;;
13222;SDS011;6676;45.192;5.722;2023-06-24T08:10:28;5.72;;;2.80;;
13222;SDS011;6676;45.192;5.722;2023-06-24T08:13:20;3.85;;;3.02;;
13222;SDS011;6676;45.192;5.722;2023-06-24T08:19:28;3.22;;;2.83;;
13222;SDS011;6676;45.192;5.722;2023-06-24T08:22:20;4.03;;;2.87;;
13222;SDS011;6676;45.192;5.722;2023-06-24T08:25:11;3.12;;;2.60;;
13222;SDS011;6676;45.192;5.722;2023-06-24T08:28:10;3.58;;;2.62;;
13222;SDS011;6676;45.192;5.722;2023-06-24T08:31:08;3.20;;;2.60;;
13222;SDS011;6676;45.192;5.722;2023-06-24T08:33:59;3.37;;;2.65;;
13222;SDS011;6676;45.192;5.722;2023-06-24T08:36:51;4.05;;;3.00;;
13222;SDS011;6676;45.192;5.722;2023-06-24T08:39:37;3.60;;;3.30;;
13222;SDS011;6676;45.192;5.722;2023-06-24T08:42:28;4.25;;;3.02;;
13222;SDS011;6676;45.192;5.722;2023-06-24T08:47:58;2.70;;;2.50;;
13222;SDS011;6676;45.192;5.722;2023-06-24T08:50:54;3.22;;;2.92;;
13222;SDS011;6676;45.192;5.722;2023-06-24T08:53:53;3.10;;;2.80;;
13222;SDS011;6676;45.192;5.722;2023-06-24T08:56:48;4.20;;;2.72;;
13222;SDS011;6676;45.192;5.722;2023-06-24T08:59:40;3.60;;;2.87;;
13222;SDS011;6676;45.192;5.722;2023-06-24T09:02:39;4.33;;;3.20;;
13222;SDS011;6676;45.192;5.722;2023-06-24T09:05:31;3.12;;;2.83;;
13222;SDS011;6676;45.192;5.722;2023-06-24T09:08:40;3.60;;;2.70;;
13222;SDS011;6676;45.192;5.722;2023-06-24T09:11:39;4.58;;;3.05;;
13222;SDS011;6676;45.192;5.722;2023-06-24T09:14:31;3.80;;;2.98;;
13222;SDS011;6676;45.192;5.722;2023-06-24T09:17:22;3.27;;;2.87;;
13222;SDS011;6676;45.192;5.722;2023-06-24T09:25:39;4.22;;;2.95;;
13222;SDS011;6676;45.192;5.722;2023-06-24T09:28:38;3.20;;;2.90;;
13222;SDS011;6676;45.192;5.722;2023-06-24T09:31:17;3.47;;;3.05;;
13222;SDS011;6676;45.192;5.722;2023-06-24T09:34:13;3.70;;;2.83;;
13222;SDS011;6676;45.192;5.722;2023-06-24T09:37:05;5.05;;;2.55;;
13222;SDS011;6676;45.192;5.722;2023-06-24T09:42:35;3.62;;;2.80;;
13222;SDS011;6676;45.192;5.722;2023-06-24T09:45:27;3.22;;;2.83;;
13222;SDS011;6676;45.192;5.722;2023-06-24T09:51:19;3.12;;;2.83;;
13222;SDS011;6676;45.192;5.722;2023-06-24T09:56:52;3.47;;;2.30;;
13222;SDS011;6676;45.192;5.722;2023-06-24T09:59:44;3.10;;;2.80;;
13222;SDS011;6676;45.192;5.722;2023-06-24T10:02:36;4.03;;;3.10;;
13222;SDS011;6676;45.192;5.722;2023-06-24T10:08:16;3.50;;;2.60;;
13222;SDS011;6676;45.192;5.722;2023-06-24T10:11:09;3.25;;;2.70;;
13222;SDS011;6676;45.192;5.722;2023-06-24T10:14:00;3.40;;;2.85;;
13222;SDS011;6676;45.192;5.722;2023-06-24T10:19:37;4.17;;;2.60;;
13222;SDS011;6676;45.192;5.722;2023-06-24T10:22:29;2.95;;;2.65;;
13222;SDS011;6676;45.192;5.722;2023-06-24T10:25:21;3.65;;;2.50;;
13222;SDS011;6676;45.192;5.722;2023-06-24T10:30:55;2.87;;;2.67;;
13222;SDS011;6676;45.192;5.722;2023-06-24T10:36:31;4.45;;;3.10;;
13222;SDS011;6676;45.192;5.722;2023-06-24T10:39:37;3.35;;;3.05;;
13222;SDS011;6676;45.192;5.722;2023-06-24T10:42:30;3.52;;;2.92;;
13222;SDS011;6676;45.192;5.722;2023-06-24T10:45:32;3.05;;;2.75;;
13222;SDS011;6676;45.192;5.722;2023-06-24T10:48:25;4.97;;;2.92;;
13222;SDS011;6676;45.192;5.722;2023-06-24T10:51:17;2.90;;;2.62;;
13222;SDS011;6676;45.192;5.722;2023-06-24T10:56:50;3.80;;;2.58;;
13222;SDS011;6676;45.192;5.722;2023-06-24T10:59:47;5.00;;;2.50;;
13222;SDS011;6676;45.192;5.722;2023-06-24T11:02:42;2.37;;;2.17;;
13222;SDS011;6676;45.192;5.722;2023-06-24T11:05:22;4.45;;;2.50;;
13222;SDS011;6676;45.192;5.722;2023-06-24T11:10:52;3.72;;;2.45;;
13222;SDS011;6676;45.192;5.722;2023-06-24T11:13:44;6.37;;;2.67;;
13222;SDS011;6676;45.192;5.722;2023-06-24T11:19:24;4.35;;;2.58;;
13222;SDS011;6676;45.192;5.722;2023-06-24T11:24:56;2.90;;;2.50;;
13222;SDS011;6676;45.192;5.722;2023-06-24T11:27:49;3.47;;;2.67;;
13222;SDS011;6676;45.192;5.722;2023-06-24T11:30:45;3.52;;;2.70;;
13222;SDS011;6676;45.192;5.722;2023-06-24T11:33:40;3.17;;;2.87;;
13222;SDS011;6676;45.192;5.722;2023-06-24T11:36:38;3.00;;;2.65;;
13222;SDS011;6676;45.192;5.722;2023-06-24T11:39:33;2.75;;;2.45;;
13222;SDS011;6676;45.192;5.722;2023-06-24T11:42:38;3.10;;;2.80;;
13222;SDS011;6676;45.192;5.722;2023-06-24T11:45:33;3.17;;;2.80;;
13222;SDS011;6676;45.192;5.722;2023-06-24T11:48:29;3.98;;;2.92;;
13222;SDS011;6676;45.192;5.722;2023-06-24T11:51:23;3.08;;;2.77;;
13222;SDS011;6676;45.192;5.722;2023-06-24T11:54:22;2.67;;;2.40;;
13222;SDS011;6676;45.192;5.722;2023-06-24T11:57:13;4.22;;;2.47;;
13222;SDS011;6676;45.192;5.722;2023-06-24T12:00:07;3.10;;;2.80;;
13222;SDS011;6676;45.192;5.722;2023-06-24T12:03:05;3.15;;;2.85;;
13222;SDS011;6676;45.192;5.722;2023-06-24T12:06:05;3.20;;;2.90;;
13222;SDS011;6676;45.192;5.722;2023-06-24T12:09:02;3.83;;;2.92;;
13222;SDS011;6676;45.192;5.722;2023-06-24T12:12:08;2.85;;;2.47;;
13222;SDS011;6676;45.192;5.722;2023-06-24T12:14:59;4.37;;;2.85;;
13222;SDS011;6676;45.192;5.722;2023-06-24T12:17:54;3.08;;;2.80;;
13222;SDS011;6676;45.192;5.722;2023-06-24T12:20:45;3.12;;;2.83;;
13222;SDS011;6676;45.192;5.722;2023-06-24T12:23:37;2.90;;;2.70;;
13222;SDS011;6676;45.192;5.722;2023-06-24T12:26:28;3.55;;;2.95;;
13222;SDS011;6676;45.192;5.722;2023-06-24T12:29:20;3.22;;;2.72;;
13222;SDS011;6676;45.192;5.722;2023-06-24T12:32:11;3.47;;;3.12;;
13222;SDS011;6676;45.192;5.722;2023-06-24T12:35:03;4.28;;;3.10;;
13222;SDS011;6676;45.192;5.722;2023-06-24T12:37:57;3.50;;;3.12;;
13222;SDS011;6676;45.192;5.722;2023-06-24T12:40:49;3.85;;;3.33;;
13222;SDS011;6676;45.192;5.722;2023-06-24T12:43:44;4.28;;;3.08;;
13222;SDS011;6676;45.192;5.722;2023-06-24T12:46:54;3.83;;;2.90;;
13222;SDS011;6676;45.192;5.722;2023-06-24T12:49:50;3.90;;;3.20;;
13222;SDS011;6676;45.192;5.722;2023-06-24T12:52:44;4.45;;;3.20;;
13222;SDS011;6676;45.192;5.722;2023-06-24T12:55:37;3.92;;;3.33;;
13222;SDS011;6676;45.192;5.722;2023-06-24T12:58:31;3.20;;;2.90;;
13222;SDS011;6676;45.192;5.722;2023-06-24T13:01:23;4.40;;;3.10;;
13222;SDS011;6676;45.192;5.722;2023-06-24T13:04:22;3.58;;;2.90;;
13222;SDS011;6676;45.192;5.722;2023-06-24T13:07:13;3.22;;;2.92;;
13222;SDS011;6676;45.192;5.722;2023-06-24T13:10:06;3.90;;;3.42;;
13222;SDS011;6676;45.192;5.722;2023-06-24T13:12:59;3.58;;;3.05;;
13222;SDS011;6676;45.192;5.722;2023-06-24T13:15:51;3.40;;;3.10;;
13222;SDS011;6676;45.192;5.722;2023-06-24T13:18:56;3.83;;;3.00;;
13222;SDS011;6676;45.192;5.722;2023-06-24T13:21:47;3.42;;;3.12;;
13222;SDS011;6676;45.192;5.722;2023-06-24T13:24:38;4.42;;;2.90;;
13222;SDS011;6676;45.192;5.722;2023-06-24T13:27:30;3.00;;;2.80;;
13222;SDS011;6676;45.192;5.722;2023-06-24T13:30:21;3.55;;;2.87;;
13222;SDS011;6676;45.192;5.722;2023-06-24T13:33:13;3.87;;;3.05;;
13222;SDS011;6676;45.192;5.722;2023-06-24T13:36:09;3.20;;;2.83;;
13222;SDS011;6676;45.192;5.722;2023-06-24T13:39:06;4.75;;;2.98;;
13222;SDS011;6676;45.192;5.722;2023-06-24T13:42:02;5.83;;;3.10;;
13222;SDS011;6676;45.192;5.722;2023-06-24T13:44:53;3.00;;;2.60;;
13222;SDS011;6676;45.192;5.722;2023-06-24T13:47:45;4.78;;;2.50;;
13222;SDS011;6676;45.192;5.722;2023-06-24T13:50:36;3.02;;;2.83;;
13222;SDS011;6676;45.192;5.722;2023-06-24T13:53:27;2.58;;;2.37;;
13222;SDS011;6676;45.192;5.722;2023-06-24T13:56:19;2.90;;;2.60;;
13222;SDS011;6676;45.192;5.722;2023-06-24T13:59:11;3.10;;;2.80;;
13222;SDS011;6676;45.192;5.722;2023-06-24T14:02:03;3.70;;;2.83;;
13222;SDS011;6676;45.192;5.722;2023-06-24T14:04:56;3.42;;;2.87;;
13222;SDS011;6676;45.192;5.722;2023-06-24T14:07:48;2.65;;;2.45;;
13222;SDS011;6676;45.192;5.722;2023-06-24T14:10:40;3.08;;;2.77;;
13222;SDS011;6676;45.192;5.722;2023-06-24T14:13:32;3.05;;;2.72;;
13222;SDS011;6676;45.192;5.722;2023-06-24T14:16:24;2.62;;;2.33;;
13222;SDS011;6676;45.192;5.722;2023-06-24T14:19:15;3.05;;;2.75;;
13222;SDS011;6676;45.192;5.722;2023-06-24T14:22:08;2.87;;;2.65;;
13222;SDS011;6676;45.192;5.722;2023-06-24T14:25:00;4.10;;;2.85;;
13222;SDS011;6676;45.192;5.722;2023-06-24T14:27:52;3.12;;;2.85;;
13222;SDS011;6676;45.192;5.722;2023-06-24T14:30:44;2.87;;;2.60;;
13222;SDS011;6676;45.192;5.722;2023-06-24T14:33:35;3.25;;;2.60;;
13222;SDS011;6676;45.192;5.722;2023-06-24T14:36:27;2.83;;;2.58;;
13222;SDS011;6676;45.192;5.722;2023-06-24T14:39:23;3.25;;;2.55;;
13222;SDS011;6676;45.192;5.722;2023-06-24T14:42:16;3.75;;;2.87;;
13222;SDS011;6676;45.192;5.722;2023-06-24T14:45:08;2.92;;;2.45;;
13222;SDS011;6676;45.192;5.722;2023-06-24T14:47:59;3.40;;;3.10;;
13222;SDS011;6676;45.192;5.722;2023-06-24T14:50:58;3.12;;;2.77;;
13222;SDS011;6676;45.192;5.722;2023-06-24T14:54:13;4.12;;;2.55;;
13222;SDS011;6676;45.192;5.722;2023-06-24T14:57:06;2.92;;;2.72;;
13222;SDS011;6676;45.192;5.722;2023-06-24T14:59:57;2.70;;;2.50;;
13222;SDS011;6676;45.192;5.722;2023-06-24T15:02:49;3.75;;;2.80;;
13222;SDS011;6676;45.192;5.722;2023-06-24T15:05:40;3.40;;;3.10;;
13222;SDS011;6676;45.192;5.722;2023-06-24T15:08:33;3.00;;;2.62;;
13222;SDS011;6676;45.192;5.722;2023-06-24T15:11:30;3.77;;;3.00;;
13222;SDS011;6676;45.192;5.722;2023-06-24T15:14:28;4.08;;;2.67;;
13222;SDS011;6676;45.192;5.722;2023-06-24T15:17:20;3.55;;;2.58;;
13222;SDS011;6676;45.192;5.722;2023-06-24T15:20:13;3.20;;;2.90;;
13222;SDS011;6676;45.192;5.722;2023-06-24T15:23:05;3.98;;;2.55;;
13222;SDS011;6676;45.192;5.722;2023-06-24T15:26:04;3.02;;;2.22;;
13222;SDS011;6676;45.192;5.722;2023-06-24T15:29:00;2.65;;;2.37;;
13222;SDS011;6676;45.192;5.722;2023-06-24T15:31:52;4.35;;;2.83;;
13222;SDS011;6676;45.192;5.722;2023-06-24T15:34:46;3.10;;;2.77;;
13222;SDS011;6676;45.192;5.722;2023-06-24T15:37:37;2.85;;;2.45;;
13222;SDS011;6676;45.192;5.722;2023-06-24T15:40:30;2.72;;;2.40;;
13222;SDS011;6676;45.192;5.722;2023-06-24T15:43:25;2.85;;;2.55;;
13222;SDS011;6676;45.192;5.722;2023-06-24T15:46:18;3.15;;;2.83;;
13222;SDS011;6676;45.192;5.722;2023-06-24T15:49:11;3.22;;;2.83;;
13222;SDS011;6676;45.192;5.722;2023-06-24T15:52:04;3.90;;;3.12;;
13222;SDS011;6676;45.192;5.722;2023-06-24T15:54:56;2.50;;;2.30;;
13222;SDS011;6676;45.192;5.722;2023-06-24T15:57:47;5.17;;;2.87;;
13222;SDS011;6676;45.192;5.722;2023-06-24T16:00:39;3.08;;;2.60;;
13222;SDS011;6676;45.192;5.722;2023-06-24T16:03:30;4.40;;;2.70;;
13222;SDS011;6676;45.192;5.722;2023-06-24T16:06:22;3.65;;;2.60;;
13222;SDS011;6676;45.192;5.722;2023-06-24T16:09:13;3.20;;;2.90;;
13222;SDS011;6676;45.192;5.722;2023-06-24T16:12:05;3.42;;;2.72;;
13222;SDS011;6676;45.192;5.722;2023-06-24T16:14:57;4.60;;;2.83;;
13222;SDS011;6676;45.192;5.722;2023-06-24T16:17:48;3.72;;;2.80;;
13222;SDS011;6676;45.192;5.722;2023-06-24T16:20:39;2.95;;;2.70;;
13222;SDS011;6676;45.192;5.722;2023-06-24T16:23:31;2.67;;;2.47;;
13222;SDS011;6676;45.192;5.722;2023-06-24T16:26:22;2.90;;;2.52;;
13222;SDS011;6676;45.192;5.722;2023-06-24T16:29:15;4.17;;;2.70;;
13222;SDS011;6676;45.192;5.722;2023-06-24T16:32:06;4.10;;;2.87;;
13222;SDS011;6676;45.192;5.722;2023-06-24T16:34:58;3.05;;;2.85;;
13222;SDS011;6676;45.192;5.722;2023-06-24T16:37:50;3.70;;;2.83;;
13222;SDS011;6676;45.192;5.722;2023-06-24T16:40:30;3.02;;;2.50;;
13222;SDS011;6676;45.192;5.722;2023-06-24T16:43:22;2.98;;;2.77;;
13222;SDS011;6676;45.192;5.722;2023-06-24T16:48:54;3.37;;;3.08;;
13222;SDS011;6676;45.192;5.722;2023-06-24T16:54:26;3.25;;;2.67;;
13222;SDS011;6676;45.192;5.722;2023-06-24T16:57:17;2.98;;;2.67;;
13222;SDS011;6676;45.192;5.722;2023-06-24T17:00:10;3.50;;;3.20;;
13222;SDS011;6676;45.192;5.722;2023-06-24T17:03:03;5.58;;;2.98;;
13222;SDS011;6676;45.192;5.722;2023-06-24T17:05:56;3.22;;;2.92;;
13222;SDS011;6676;45.192;5.722;2023-06-24T17:08:47;3.65;;;3.08;;
13222;SDS011;6676;45.192;5.722;2023-06-24T17:11:39;3.58;;;3.22;;
13222;SDS011;6676;45.192;5.722;2023-06-24T17:14:18;3.58;;;2.65;;
13222;SDS011;6676;45.192;5.722;2023-06-24T17:19:48;3.10;;;2.58;;
13222;SDS011;6676;45.192;5.722;2023-06-24T17:22:39;3.40;;;3.00;;
13222;SDS011;6676;45.192;5.722;2023-06-24T17:25:30;3.90;;;3.00;;
13222;SDS011;6676;45.192;5.722;2023-06-24T17:28:22;3.37;;;2.90;;
13222;SDS011;6676;45.192;5.722;2023-06-24T17:31:14;5.33;;;3.20;;
13222;SDS011;6676;45.192;5.722;2023-06-24T17:34:07;4.75;;;3.00;;
13222;SDS011;6676;45.192;5.722;2023-06-24T17:36:58;4.25;;;2.65;;
13222;SDS011;6676;45.192;5.722;2023-06-24T17:39:49;4.03;;;3.12;;
13222;SDS011;6676;45.192;5.722;2023-06-24T17:42:41;3.77;;;3.02;;
13222;SDS011;6676;45.192;5.722;2023-06-24T17:45:21;3.00;;;2.70;;
13222;SDS011;6676;45.192;5.722;2023-06-24T17:48:15;3.85;;;2.90;;
13222;SDS011;6676;45.192;5.722;2023-06-24T17:51:06;3.35;;;3.02;;
13222;SDS011;6676;45.192;5.722;2023-06-24T17:53:58;3.85;;;3.22;;
13222;SDS011;6676;45.192;5.722;2023-06-24T17:56:51;3.85;;;3.33;;
13222;SDS011;6676;45.192;5.722;2023-06-24T17:59:42;3.30;;;3.00;;
13222;SDS011;6676;45.192;5.722;2023-06-24T18:02:34;6.60;;;3.00;;
13222;SDS011;6676;45.192;5.722;2023-06-24T18:08:05;3.35;;;3.05;;
13222;SDS011;6676;45.192;5.722;2023-06-24T18:10:57;3.30;;;2.83;;
13222;SDS011;6676;45.192;5.722;2023-06-24T18:13:48;2.98;;;2.77;;
13222;SDS011;6676;45.192;5.722;2023-06-24T18:19:22;4.08;;;3.12;;
13222;SDS011;6676;45.192;5.722;2023-06-24T18:22:20;5.28;;;2.95;;
13222;SDS011;6676;45.192;5.722;2023-06-24T18:25:11;3.75;;;2.92;;
13222;SDS011;6676;45.192;5.722;2023-06-24T18:28:03;3.40;;;3.10;;
13222;SDS011;6676;45.192;5.722;2023-06-24T18:30:42;4.35;;;3.12;;
13222;SDS011;6676;45.192;5.722;2023-06-24T18:36:12;3.45;;;3.15;;
13222;SDS011;6676;45.192;5.722;2023-06-24T18:39:04;5.05;;;3.45;;
13222;SDS011;6676;45.192;5.722;2023-06-24T18:44:34;3.50;;;3.20;;
13222;SDS011;6676;45.192;5.722;2023-06-24T18:47:25;4.25;;;3.20;;
13222;SDS011;6676;45.192;5.722;2023-06-24T18:50:17;3.80;;;2.95;;
13222;SDS011;6676;45.192;5.722;2023-06-24T18:53:08;3.45;;;3.05;;
13222;SDS011;6676;45.192;5.722;2023-06-24T18:56:00;6.83;;;3.70;;
13222;SDS011;6676;45.192;5.722;2023-06-24T18:58:53;4.62;;;3.20;;
13222;SDS011;6676;45.192;5.722;2023-06-24T19:04:25;3.83;;;3.00;;
13222;SDS011;6676;45.192;5.722;2023-06-24T19:07:24;3.70;;;3.27;;
13222;SDS011;6676;45.192;5.722;2023-06-24T19:10:05;3.70;;;3.37;;
13222;SDS011;6676;45.192;5.722;2023-06-24T19:12:56;4.28;;;3.37;;
13222;SDS011;6676;45.192;5.722;2023-06-24T19:15:48;3.30;;;3.00;;
13222;SDS011;6676;45.192;5.722;2023-06-24T19:18:39;3.75;;;3.30;;
13222;SDS011;6676;45.192;5.722;2023-06-24T19:21:30;4.45;;;3.20;;
13222;SDS011;6676;45.192;5.722;2023-06-24T19:24:22;3.37;;;3.08;;
13222;SDS011;6676;45.192;5.722;2023-06-24T19:27:13;3.72;;;3.27;;
13222;SDS011;6676;45.192;5.722;2023-06-24T19:30:06;3.47;;;3.17;;
13222;SDS011;6676;45.192;5.722;2023-06-24T19:32:47;4.17;;;3.62;;
13222;SDS011;6676;45.192;5.722;2023-06-24T19:35:38;4.90;;;4.12;;
13222;SDS011;6676;45.192;5.722;2023-06-24T19:38:29;5.37;;;4.87;;
13222;SDS011;6676;45.192;5.722;2023-06-24T19:41:20;9.40;;;7.15;;
13222;SDS011;6676;45.192;5.722;2023-06-24T19:44:03;7.37;;;5.58;;
13222;SDS011;6676;45.192;5.722;2023-06-24T19:46:55;8.48;;;6.40;;
13222;SDS011;6676;45.192;5.722;2023-06-24T19:49:50;5.17;;;4.67;;
13222;SDS011;6676;45.192;5.722;2023-06-24T19:52:43;7.58;;;5.20;;
13222;SDS011;6676;45.192;5.722;2023-06-24T19:55:34;6.17;;;4.65;;
13222;SDS011;6676;45.192;5.722;2023-06-24T19:58:26;6.12;;;4.97;;
13222;SDS011;6676;45.192;5.722;2023-06-24T20:01:18;4.80;;;4.35;;
13222;SDS011;6676;45.192;5.722;2023-06-24T20:04:09;4.25;;;3.85;;
13222;SDS011;6676;45.192;5.722;2023-06-24T20:09:44;6.05;;;4.80;;